Map

Track Data

SID SEASON NUMBER BASIN SUBBASIN NAME ISO_TIME NATURE LAT LON WMO_WIND WMO_PRES WMO_AGENCY TRACK_TYPE DIST2LAND LANDFALL IFLAG USA_AGENCY USA_ATCF_ID USA_LAT USA_LON USA_RECORD USA_STATUS USA_WIND USA_PRES USA_SSHS USA_R34_NE USA_R34_SE USA_R34_SW USA_R34_NW USA_R50_NE USA_R50_SE USA_R50_SW USA_R50_NW USA_R64_NE USA_R64_SE USA_R64_SW USA_R64_NW USA_POCI USA_ROCI USA_RMW USA_EYE TOKYO_LAT TOKYO_LON TOKYO_GRADE TOKYO_WIND TOKYO_PRES TOKYO_R50_DIR TOKYO_R50_LONG TOKYO_R50_SHORT TOKYO_R30_DIR TOKYO_R30_LONG TOKYO_R30_SHORT TOKYO_LAND CMA_LAT CMA_LON CMA_CAT CMA_WIND CMA_PRES HKO_LAT HKO_LON HKO_CAT HKO_WIND HKO_PRES NEWDELHI_LAT NEWDELHI_LON NEWDELHI_GRADE NEWDELHI_WIND NEWDELHI_PRES NEWDELHI_CI NEWDELHI_DP NEWDELHI_POCI REUNION_LAT REUNION_LON REUNION_TYPE REUNION_WIND REUNION_PRES REUNION_TNUM REUNION_CI REUNION_RMW REUNION_R34_NE REUNION_R34_SE REUNION_R34_SW REUNION_R34_NW REUNION_R50_NE REUNION_R50_SE REUNION_R50_SW REUNION_R50_NW REUNION_R64_NE REUNION_R64_SE REUNION_R64_SW REUNION_R64_NW BOM_LAT BOM_LON BOM_TYPE BOM_WIND BOM_PRES BOM_TNUM BOM_CI BOM_RMW BOM_R34_NE BOM_R34_SE BOM_R34_SW BOM_R34_NW BOM_R50_NE BOM_R50_SE BOM_R50_SW BOM_R50_NW BOM_R64_NE BOM_R64_SE BOM_R64_SW BOM_R64_NW BOM_ROCI BOM_POCI BOM_EYE BOM_POS_METHOD BOM_PRES_METHOD NADI_LAT NADI_LON NADI_CAT NADI_WIND NADI_PRES WELLINGTON_LAT WELLINGTON_LON WELLINGTON_WIND WELLINGTON_PRES DS824_LAT DS824_LON DS824_STAGE DS824_WIND DS824_PRES TD9636_LAT TD9636_LON TD9636_STAGE TD9636_WIND TD9636_PRES TD9635_LAT TD9635_LON TD9635_WIND TD9635_PRES TD9635_ROCI NEUMANN_LAT NEUMANN_LON NEUMANN_CLASS NEUMANN_WIND NEUMANN_PRES MLC_LAT MLC_LON MLC_CLASS MLC_WIND MLC_PRES USA_GUST BOM_GUST BOM_GUST_PER REUNION_GUST REUNION_GUST_PER USA_SEAHGT USA_SEARAD_NE USA_SEARAD_SE USA_SEARAD_SW USA_SEARAD_NW STORM_SPEED STORM_DIR
1962255N16314 1962 78 NA NA CELIA 1962-09-12 00:00:00 TS 15.9000 -45.9000 35 hurdat_atl main 1404 1381 O_____________ hurdat_atl AL031962 15.9000 -45.9000 TS 35 0 9 275
1962255N16314 1962 78 NA NA CELIA 1962-09-12 03:00:00 TS 15.9402 -46.3525 main 1376 1365 P_____________ AL031962 15.9402 -46.3525 TS 37 0 9 277
1962255N16314 1962 78 NA NA CELIA 1962-09-12 06:00:00 TS 16.0000 -46.8000 40 hurdat_atl main 1365 1355 O_____________ hurdat_atl AL031962 16.0000 -46.8000 TS 40 0 9 280
1962255N16314 1962 78 NA NA CELIA 1962-09-12 09:00:00 TS 16.0924 -47.2425 main 1355 1340 P_____________ AL031962 16.0924 -47.2425 TS 42 0 9 283
1962255N16314 1962 78 NA NA CELIA 1962-09-12 12:00:00 TS 16.2000 -47.7000 45 hurdat_atl main 1341 1332 O_____________ hurdat_atl AL031962 16.2000 -47.7000 TS 45 0 9 283
1962255N16314 1962 78 NA NA CELIA 1962-09-12 15:00:00 TS 16.2998 -48.1776 main 1330 1319 P_____________ AL031962 16.2998 -48.1776 TS 50 0 10 282
1962255N16314 1962 78 NA NA CELIA 1962-09-12 18:00:00 TS 16.4000 -48.7000 55 hurdat_atl main 1319 1305 O_____________ hurdat_atl AL031962 16.4000 -48.7000 TS 55 0 11 280
1962255N16314 1962 78 NA NA CELIA 1962-09-12 21:00:00 TS 16.4849 -49.2777 main 1301 1284 P_____________ AL031962 16.4849 -49.2777 TS 57 0 12 280
1962255N16314 1962 78 NA NA CELIA 1962-09-13 00:00:00 TS 16.6000 -49.9000 60 hurdat_atl main 1286 1278 O_____________ hurdat_atl AL031962 16.6000 -49.9000 TS 60 0 12 284
1962255N16314 1962 78 NA NA CELIA 1962-09-13 03:00:00 TS 16.7773 -50.5351 main 1285 1271 P_____________ AL031962 16.7773 -50.5351 TS 60 0 13 288
1962255N16314 1962 78 NA NA CELIA 1962-09-13 06:00:00 TS 17.0000 -51.2000 60 hurdat_atl main 1271 1222 O_____________ hurdat_atl AL031962 17.0000 -51.2000 TS 60 0 14 290
1962255N16314 1962 78 NA NA CELIA 1962-09-13 09:00:00 TS 17.2424 -51.9000 main 1222 1183 P_____________ AL031962 17.2424 -51.9000 TS 60 0 14 291
1962255N16314 1962 78 NA NA CELIA 1962-09-13 12:00:00 TS 17.5000 -52.6000 60 995 hurdat_atl main 1183 1149 O_____________ hurdat_atl AL031962 17.5000 -52.6000 TS 60 995 0 14 292
1962255N16314 1962 78 NA NA CELIA 1962-09-13 15:00:00 TS 17.7573 -53.2651 main 1148 1118 P_____________ AL031962 17.7573 -53.2651 TS 57 0 13 292
1962255N16314 1962 78 NA NA CELIA 1962-09-13 18:00:00 TS 18.0000 -53.9000 55 hurdat_atl main 1119 1092 O_____________ hurdat_atl AL031962 18.0000 -53.9000 TS 55 0 13 291
1962255N16314 1962 78 NA NA CELIA 1962-09-13 21:00:00 TS 18.2073 -54.5152 main 1092 1070 P_____________ AL031962 18.2073 -54.5152 TS 52 0 12 289
1962255N16314 1962 78 NA NA CELIA 1962-09-14 00:00:00 TS 18.4000 -55.1000 50 hurdat_atl main 1070 1054 O_____________ hurdat_atl AL031962 18.4000 -55.1000 TS 50 0 12 289
1962255N16314 1962 78 NA NA CELIA 1962-09-14 03:00:00 TS 18.5923 -55.6652 main 1044 991 P_____________ AL031962 18.5923 -55.6652 TS 47 0 11 291
1962255N16314 1962 78 NA NA CELIA 1962-09-14 06:00:00 TS 18.8000 -56.2000 45 1005 hurdat_atl main 991 939 O_____________ hurdat_atl AL031962 18.8000 -56.2000 TS 45 1005 0 11 295
1962255N16314 1962 78 NA NA CELIA 1962-09-14 09:00:00 TS 19.0499 -56.7225 main 939 889 P_____________ AL031962 19.0499 -56.7225 TS 45 1005 0 11 298
1962255N16314 1962 78 NA NA CELIA 1962-09-14 12:00:00 TS 19.3000 -57.2000 45 1005 hurdat_atl main 889 850 O_____________ hurdat_atl AL031962 19.3000 -57.2000 TS 45 1005 0 10 298
1962255N16314 1962 78 NA NA CELIA 1962-09-14 15:00:00 TS 19.4998 -57.6153 main 850 811 P_____________ AL031962 19.4998 -57.6153 TS 45 0 9 298
1962255N16314 1962 78 NA NA CELIA 1962-09-14 18:00:00 TS 19.7000 -58.0000 45 hurdat_atl main 811 774 O_____________ hurdat_atl AL031962 19.7000 -58.0000 TS 45 0 9 300
1962255N16314 1962 78 NA NA CELIA 1962-09-14 21:00:00 TS 19.9349 -58.4001 main 774 741 P_____________ AL031962 19.9349 -58.4001 TS 42 0 9 304
1962255N16314 1962 78 NA NA CELIA 1962-09-15 00:00:00 TS 20.2000 -58.8000 40 hurdat_atl main 741 707 O_____________ hurdat_atl AL031962 20.2000 -58.8000 TS 40 0 9 304
1962255N16314 1962 78 NA NA CELIA 1962-09-15 03:00:00 TS 20.4625 -59.2226 main 710 683 P_____________ AL031962 20.4625 -59.2226 TS 37 0 10 309
1962255N16314 1962 78 NA NA CELIA 1962-09-15 06:00:00 TS 20.8000 -59.6000 35 hurdat_atl main 683 673 O_____________ hurdat_atl AL031962 20.8000 -59.6000 TS 35 0 10 322
1962255N16314 1962 78 NA NA CELIA 1962-09-15 09:00:00 TS 21.2474 -59.8802 main 673 673 P_____________ AL031962 21.2474 -59.8802 TS 35 0 11 335
1962255N16314 1962 78 NA NA CELIA 1962-09-15 12:00:00 TS 21.8000 -60.1000 35 1010 hurdat_atl main 688 688 O_____________ hurdat_atl AL031962 21.8000 -60.1000 TS 35 1010 0 12 341
1962255N16314 1962 78 NA NA CELIA 1962-09-15 15:00:00 TS 22.4125 -60.3077 main 710 710 P_____________ AL031962 22.4125 -60.3077 TS 32 -1 14 344
1962255N16314 1962 78 NA NA CELIA 1962-09-15 18:00:00 TS 23.1000 -60.5000 30 hurdat_atl main 746 746 O_____________ hurdat_atl AL031962 23.1000 -60.5000 TD 30 -1 15 345
1962255N16314 1962 78 NA NA CELIA 1962-09-15 21:00:00 TS 23.8425 -60.7222 main 789 789 P_____________ AL031962 23.8425 -60.7222 TD 27 -1 16 346
1962255N16314 1962 78 NA NA CELIA 1962-09-16 00:00:00 TS 24.6000 -60.9000 25 hurdat_atl main 846 846 O_____________ hurdat_atl AL031962 24.6000 -60.9000 TD 25 -1 15 350
1962255N16314 1962 78 NA NA CELIA 1962-09-16 03:00:00 TS 25.3074 -60.9951 main 905 905 P_____________ AL031962 25.3074 -60.9951 TD 25 -1 14 356
1962255N16314 1962 78 NA NA CELIA 1962-09-16 06:00:00 TS 26.0000 -61.0000 25 hurdat_atl main 972 972 O_____________ hurdat_atl AL031962 26.0000 -61.0000 TD 25 -1 14 2
1962255N16314 1962 78 NA NA CELIA 1962-09-16 09:00:00 TS 26.7075 -60.9302 main 1045 1045 P_____________ AL031962 26.7075 -60.9302 TD 25 -1 14 7
1962255N16314 1962 78 NA NA CELIA 1962-09-16 12:00:00 TS 27.4000 -60.8000 25 hurdat_atl main 1119 1119 O_____________ hurdat_atl AL031962 27.4000 -60.8000 TD 25 -1 14 8
1962255N16314 1962 78 NA NA CELIA 1962-09-16 15:00:00 TS 28.0572 -60.7089 main 1193 1193 P_____________ AL031962 28.0572 -60.7089 TD 25 -1 13 12
1962255N16314 1962 78 NA NA CELIA 1962-09-16 18:00:00 TS 28.7000 -60.5000 25 hurdat_atl main 1262 1262 O_____________ hurdat_atl AL031962 28.7000 -60.5000 TD 25 -1 15 22
1962255N16314 1962 78 NA NA CELIA 1962-09-16 21:00:00 TS 29.4097 -60.0909 main 1349 1349 P_____________ AL031962 29.4097 -60.0909 TD 25 -1 16 34
1962255N16314 1962 78 NA NA CELIA 1962-09-17 00:00:00 TS 30.0000 -59.5000 25 1010 hurdat_atl main 1435 1435 O_____________ hurdat_atl AL031962 30.0000 -59.5000 TD 25 1010 -1 15 50
1962255N16314 1962 78 NA NA CELIA 1962-09-17 03:00:00 TS 30.3476 -58.7873 main 1496 1496 P_____________ AL031962 30.3476 -58.7873 TD 25 -1 14 69
1962255N16314 1962 78 NA NA CELIA 1962-09-17 06:00:00 TS 30.5000 -58.0000 25 hurdat_atl main 1554 1554 O_____________ hurdat_atl AL031962 30.5000 -58.0000 TD 25 -1 13 82
1962255N16314 1962 78 NA NA CELIA 1962-09-17 09:00:00 TS 30.5446 -57.2493 main 1595 1595 P_____________ AL031962 30.5446 -57.2493 TD 27 -1 13 90
1962255N16314 1962 78 NA NA CELIA 1962-09-17 12:00:00 TS 30.5000 -56.5000 30 hurdat_atl main 1634 1634 O_____________ hurdat_atl AL031962 30.5000 -56.5000 TD 30 -1 13 94
1962255N16314 1962 78 NA NA CELIA 1962-09-17 15:00:00 TS 30.4573 -55.7349 main 1676 1676 P_____________ AL031962 30.4573 -55.7349 TD 30 -1 13 94
1962255N16314 1962 78 NA NA CELIA 1962-09-17 18:00:00 TS 30.4000 -55.0000 30 hurdat_atl main 1715 1715 O_____________ hurdat_atl AL031962 30.4000 -55.0000 TD 30 -1 12 95
1962255N16314 1962 78 NA NA CELIA 1962-09-17 21:00:00 TS 30.3497 -54.3126 main 1751 1751 P_____________ AL031962 30.3497 -54.3126 TD 30 -1 11 95
1962255N16314 1962 78 NA NA CELIA 1962-09-18 00:00:00 TS 30.3000 -53.7000 30 hurdat_atl main 1779 1779 O_____________ hurdat_atl AL031962 30.3000 -53.7000 TD 30 -1 10 95
1962255N16314 1962 78 NA NA CELIA 1962-09-18 03:00:00 TS 30.2573 -53.1476 main 1799 1799 P_____________ AL031962 30.2573 -53.1476 TD 30 -1 9 97
1962255N16314 1962 78 NA NA CELIA 1962-09-18 06:00:00 TS 30.2000 -52.7000 30 hurdat_atl main 1823 1823 O_____________ hurdat_atl AL031962 30.2000 -52.7000 TD 30 -1 7 102
1962255N16314 1962 78 NA NA CELIA 1962-09-18 09:00:00 TS 30.1148 -52.3475 main 1838 1838 P_____________ AL031962 30.1148 -52.3475 TD 30 -1 6 111
1962255N16314 1962 78 NA NA CELIA 1962-09-18 12:00:00 TS 30.0000 -52.1000 30 hurdat_atl main 1850 1850 O_____________ hurdat_atl AL031962 30.0000 -52.1000 TD 30 -1 5 123
1962255N16314 1962 78 NA NA CELIA 1962-09-18 15:00:00 TS 29.8574 -51.8899 main 1862 1862 P_____________ AL031962 29.8574 -51.8899 TD 32 -1 4 139
1962255N16314 1962 78 NA NA CELIA 1962-09-18 18:00:00 TS 29.7000 -51.8000 35 hurdat_atl main 1882 1875 O_____________ hurdat_atl AL031962 29.7000 -51.8000 TS 35 0 3 174
1962255N16314 1962 78 NA NA CELIA 1962-09-18 21:00:00 TS 29.5425 -51.8551 main 1861 1846 P_____________ AL031962 29.5425 -51.8551 TS 37 0 3 210
1962255N16314 1962 78 NA NA CELIA 1962-09-19 00:00:00 TS 29.4000 -52.0000 40 hurdat_atl main 1846 1831 O_____________ hurdat_atl AL031962 29.4000 -52.0000 TS 40 0 4 222
1962255N16314 1962 78 NA NA CELIA 1962-09-19 03:00:00 TS 29.2774 -52.1275 main 1831 1809 P_____________ AL031962 29.2774 -52.1275 TS 42 0 3 233
1962255N16314 1962 78 NA NA CELIA 1962-09-19 06:00:00 TS 29.2000 -52.3000 45 hurdat_atl main 1809 1794 O_____________ hurdat_atl AL031962 29.2000 -52.3000 TS 45 0 4 253
1962255N16314 1962 78 NA NA CELIA 1962-09-19 09:00:00 TS 29.1774 -52.5125 main 1794 1772 P_____________ AL031962 29.1774 -52.5125 TS 45 0 4 270
1962255N16314 1962 78 NA NA CELIA 1962-09-19 12:00:00 TS 29.2000 -52.8000 45 hurdat_atl main 1772 1742 O_____________ hurdat_atl AL031962 29.2000 -52.8000 TS 45 0 6 275
1962255N16314 1962 78 NA NA CELIA 1962-09-19 15:00:00 TS 29.2276 -53.1776 main 1742 1721 P_____________ AL031962 29.2276 -53.1776 TS 45 0 7 278
1962255N16314 1962 78 NA NA CELIA 1962-09-19 18:00:00 TS 29.3000 -53.6000 45 1005 hurdat_atl main 1721 1700 O_____________ hurdat_atl AL031962 29.3000 -53.6000 TS 45 1005 0 7 283
1962255N16314 1962 78 NA NA CELIA 1962-09-19 21:00:00 TS 29.3899 -54.0079 main 1700 1687 P_____________ AL031962 29.3899 -54.0079 TS 42 0 8 293
1962255N16314 1962 78 NA NA CELIA 1962-09-20 00:00:00 TS 29.6000 -54.4000 40 hurdat_atl main 1688 1683 O_____________ hurdat_atl AL031962 29.6000 -54.4000 TS 40 0 9 312
1962255N16314 1962 78 NA NA CELIA 1962-09-20 03:00:00 TS 29.9975 -54.7796 main 1694 1694 P_____________ AL031962 29.9975 -54.7796 TS 40 0 11 326
1962255N16314 1962 78 NA NA CELIA 1962-09-20 06:00:00 TS 30.5000 -55.1000 40 hurdat_atl main 1703 1641 O_____________ hurdat_atl AL031962 30.5000 -55.1000 TS 40 0 11 333
1962255N16314 1962 78 NA NA CELIA 1962-09-20 09:00:00 TS 30.9849 -55.3746 main 1641 1587 P_____________ AL031962 30.9849 -55.3746 TS 40 0 11 341
1962255N16314 1962 78 NA NA CELIA 1962-09-20 12:00:00 TS 31.5000 -55.5000 40 1007 hurdat_atl main 1587 1539 O_____________ hurdat_atl AL031962 31.5000 -55.5000 TS 40 1007 0 11 357
1962255N16314 1962 78 NA NA CELIA 1962-09-20 15:00:00 TS 32.0349 -55.4326 main 1544 1491 P_____________ AL031962 32.0349 -55.4326 TS 40 0 11 13
1962255N16314 1962 78 NA NA CELIA 1962-09-20 18:00:00 TS 32.6000 -55.2000 40 hurdat_atl main 1491 1447 O_____________ hurdat_atl AL031962 32.6000 -55.2000 TS 40 0 12 22
1962255N16314 1962 78 NA NA CELIA 1962-09-20 21:00:00 TS 33.1324 -54.9012 main 1447 1387 P_____________ AL031962 33.1324 -54.9012 TS 40 0 13 26
1962255N16314 1962 78 NA NA CELIA 1962-09-21 00:00:00 TS 33.8000 -54.5000 40 hurdat_atl main 1387 1310 O_____________ hurdat_atl AL031962 33.8000 -54.5000 TS 40 0 17 24
1962255N16314 1962 78 NA NA CELIA 1962-09-21 03:00:00 TS 34.7246 -54.0585 main 1310 1212 P_____________ AL031962 34.7246 -54.0585 TS 40 0 22 22
1962255N16314 1962 78 NA NA CELIA 1962-09-21 06:00:00 TS 35.8000 -53.5000 40 hurdat_atl main 1201 1090 O_____________ hurdat_atl AL031962 35.8000 -53.5000 TS 40 0 24 25
1962255N16314 1962 78 NA NA CELIA 1962-09-21 09:00:00 TS 36.9012 -52.7976 main 1079 971 P_____________ AL031962 36.9012 -52.7976 TS 37 0 25 29
1962255N16314 1962 78 NA NA CELIA 1962-09-21 12:00:00 TS 38.0000 -52.0000 35 hurdat_atl main 961 O_____________ hurdat_atl AL031962 38.0000 -52.0000 TS 35 0 25 30

About IBTrACS Database

This database is a web-friendly format of International Best Track Archive for Climate Stewardship (IBTrACS), a global best track data archive curated by NOAA dating back to 1842.

Updated: 2021-12-06